Terminal Aerodrome Forecast
Issued by NWS

Home | Current Version | Previous Version | Text Only | Print | Product List | Glossary On
Versions: 1 2 3 4 5 6 7 8 9 10 11 12 13 14 15 16 17 18
000
FTUS41 KBTV 251131
TAFMSS
TAF
KMSS 251131Z 2512/2612 00000KT 1/2SM FZFG OVC030
      TEMPO 2512/2515 2SM BR BKN020 OVC025
     FM251500 03012KT 3SM BR SCT020 OVC025
     FM251700 03012KT P6SM SCT020 BKN025
     FM251900 04009KT P6SM BKN040
     FM252000 04008KT P6SM SCT060
     FM260000 05004KT P6SM SKC=

USA.gov is the U.S. government's official web portal to all federal, state and local government web resources and services.